Humidity-temperature Sensor

Selected Measurement Type: Relative Humidity

 
Relative Humidity [%]     6 entries per hour
Showing data from 9/19/2019 (00:00:00 Z) to 9/18/2019 (00:01:00 Z)
Previous Next [ Day | 3-Days | 7-Days ]
First Last
Prev [ Day | 3-Days | 7-Days ] Next
First Last

Start Time:     :
End Time:     :     
Time (in GMT) :00 :50 :40 :30 :20 :10
Previous Next [ Day | 3-Days | 7-Days ]
First Last
Prev [ Day | 3-Days | 7-Days ] Next
First Last


123 => good data
MM => data is determined as missing
-- => data not received/configured
Back to Top Back to Top
9/19/2019 00:00 to 23:10 75.99 74.96 74.31 73.82 74.23 73.55
9/18/2019 23:00 to 22:10 74.23 74.16 74.70 74.86 73.76 74.16
9/18/2019 22:00 to 21:10 74.00 73.18 73.88 73.71 73.35 73.71
9/18/2019 21:00 to 20:10 73.02 72.81 73.53 73.33 73.16 72.92
9/18/2019 20:00 to 19:10 73.43 73.45 73.00 73.47 72.26 71.59
9/18/2019 19:00 to 18:10 72.69 72.90 72.08 72.49 72.47 71.79
9/18/2019 18:00 to 17:10 71.73 71.18 71.34 71.32 71.54 72.77
9/18/2019 17:00 to 16:10 72.40 70.99 72.49 72.30 72.59 71.67
9/18/2019 16:00 to 15:10 73.18 72.81 72.81 71.99 72.65 72.57
9/18/2019 15:00 to 14:10 71.79 72.02 71.71 71.75 70.34 69.54
9/18/2019 14:00 to 13:10 70.30 71.28 70.19 70.38 71.46 70.56
9/18/2019 13:00 to 12:10 70.93 70.17 70.54 69.78 70.42 70.34
9/18/2019 12:00 to 11:10 70.77 70.46 71.28 69.46 70.56 69.78
9/18/2019 11:00 to 10:10 69.05 70.38 70.50 70.30 71.15 70.17
9/18/2019 10:00 to 9:10 71.85 70.03 69.66 70.32 70.54 71.22
9/18/2019 09:00 to 8:10 71.11 71.48 70.66 70.05 70.17 70.34
9/18/2019 08:00 to 7:10 70.75 69.76 68.60 67.67 67.35 68.02
9/18/2019 07:00 to 6:10 69.78 69.13 69.15 68.70 69.89 70.36
9/18/2019 06:00 to 5:10 69.41 69.89 70.34 69.99 69.56 69.56
9/18/2019 05:00 to 4:10 69.23 70.19 69.35 69.13 70.46 69.74
9/18/2019 04:00 to 3:10 69.50 69.33 71.48 70.11 70.62 69.21
9/18/2019 03:00 to 2:10 68.10 69.25 68.04 68.47 68.08 66.26
9/18/2019 02:00 to 1:10 67.16 68.60 67.69 67.98 66.98 67.92
9/18/2019 01:00 to 0:10 67.67 69.50 69.37 69.74 68.58 69.68